sensor_id;sensor_type;location;lat;lon;timestamp;pressure;altitude;pressure_sealevel;temperature;humidity
24336;BME280;33098;52.400;16.880;2023-04-22T00:02:21;100789.52;;;12.44;49.72
24336;BME280;33098;52.400;16.880;2023-04-22T00:04:48;100790.51;;;12.40;49.83
24336;BME280;33098;52.400;16.880;2023-04-22T00:07:16;100789.86;;;12.37;49.96
24336;BME280;33098;52.400;16.880;2023-04-22T00:09:43;100783.50;;;12.33;50.08
24336;BME280;33098;52.400;16.880;2023-04-22T00:12:09;100782.23;;;12.26;50.20
24336;BME280;33098;52.400;16.880;2023-04-22T00:14:39;100776.27;;;12.27;50.23
24336;BME280;33098;52.400;16.880;2023-04-22T00:17:06;100776.90;;;12.35;50.28
24336;BME280;33098;52.400;16.880;2023-04-22T00:19:36;100774.40;;;12.37;50.30
24336;BME280;33098;52.400;16.880;2023-04-22T00:22:06;100774.05;;;12.37;50.19
24336;BME280;33098;52.400;16.880;2023-04-22T00:24:32;100772.16;;;12.32;50.22
24336;BME280;33098;52.400;16.880;2023-04-22T00:27:01;100772.65;;;12.28;50.27
24336;BME280;33098;52.400;16.880;2023-04-22T00:29:28;100774.92;;;12.28;50.37
24336;BME280;33098;52.400;16.880;2023-04-22T00:31:54;100771.25;;;12.27;50.39
24336;BME280;33098;52.400;16.880;2023-04-22T00:34:21;100771.89;;;12.19;50.39
24336;BME280;33098;52.400;16.880;2023-04-22T00:36:48;100769.57;;;12.11;50.37
24336;BME280;33098;52.400;16.880;2023-04-22T00:39:15;100766.73;;;12.00;50.48
24336;BME280;33098;52.400;16.880;2023-04-22T00:41:42;100769.26;;;11.94;50.61
24336;BME280;33098;52.400;16.880;2023-04-22T00:44:10;100769.52;;;11.90;50.74
24336;BME280;33098;52.400;16.880;2023-04-22T00:46:40;100767.56;;;11.84;50.79
24336;BME280;33098;52.400;16.880;2023-04-22T00:49:07;100766.89;;;11.86;51.02
24336;BME280;33098;52.400;16.880;2023-04-22T00:51:34;100764.48;;;11.91;51.05
24336;BME280;33098;52.400;16.880;2023-04-22T00:54:00;100766.83;;;11.82;50.98
24336;BME280;33098;52.400;16.880;2023-04-22T00:56:28;100769.03;;;11.67;50.91
24336;BME280;33098;52.400;16.880;2023-04-22T00:58:56;100764.30;;;11.55;51.11
24336;BME280;33098;52.400;16.880;2023-04-22T01:01:23;100762.84;;;11.53;51.24
24336;BME280;33098;52.400;16.880;2023-04-22T01:03:50;100764.55;;;11.54;51.35
24336;BME280;33098;52.400;16.880;2023-04-22T01:06:18;100764.80;;;11.55;51.41
24336;BME280;33098;52.400;16.880;2023-04-22T01:08:45;100770.52;;;11.55;51.31
24336;BME280;33098;52.400;16.880;2023-04-22T01:11:14;100768.14;;;11.51;51.52
24336;BME280;33098;52.400;16.880;2023-04-22T01:13:41;100769.11;;;11.45;51.47
24336;BME280;33098;52.400;16.880;2023-04-22T01:16:08;100765.95;;;11.40;51.50
24336;BME280;33098;52.400;16.880;2023-04-22T01:18:35;100769.75;;;11.42;51.65
24336;BME280;33098;52.400;16.880;2023-04-22T01:21:03;100768.55;;;11.41;51.66
24336;BME280;33098;52.400;16.880;2023-04-22T01:23:29;100768.33;;;11.37;51.62
24336;BME280;33098;52.400;16.880;2023-04-22T01:25:56;100771.20;;;11.30;51.67
24336;BME280;33098;52.400;16.880;2023-04-22T01:28:23;100776.77;;;11.28;51.77
24336;BME280;33098;52.400;16.880;2023-04-22T01:30:51;100781.39;;;11.26;51.85
24336;BME280;33098;52.400;16.880;2023-04-22T01:33:18;100779.45;;;11.22;51.83
24336;BME280;33098;52.400;16.880;2023-04-22T01:35:45;100777.55;;;11.14;51.84
24336;BME280;33098;52.400;16.880;2023-04-22T01:38:14;100777.30;;;11.08;52.03
24336;BME280;33098;52.400;16.880;2023-04-22T01:40:44;100776.17;;;11.01;52.03
24336;BME280;33098;52.400;16.880;2023-04-22T01:43:11;100775.53;;;10.91;52.10
24336;BME280;33098;52.400;16.880;2023-04-22T01:45:38;100776.10;;;10.86;52.24
24336;BME280;33098;52.400;16.880;2023-04-22T01:48:08;100774.55;;;10.80;52.30
24336;BME280;33098;52.400;16.880;2023-04-22T01:50:36;100773.67;;;10.71;52.35
24336;BME280;33098;52.400;16.880;2023-04-22T01:53:06;100772.84;;;10.72;52.58
24336;BME280;33098;52.400;16.880;2023-04-22T01:55:33;100770.52;;;10.70;52.58
24336;BME280;33098;52.400;16.880;2023-04-22T01:58:02;100767.34;;;10.65;52.68
24336;BME280;33098;52.400;16.880;2023-04-22T02:00:32;100766.98;;;10.65;52.70
24336;BME280;33098;52.400;16.880;2023-04-22T02:02:59;100764.98;;;10.61;52.72
24336;BME280;33098;52.400;16.880;2023-04-22T02:05:26;100765.23;;;10.57;52.79
24336;BME280;33098;52.400;16.880;2023-04-22T02:07:54;100763.61;;;10.55;52.86
24336;BME280;33098;52.400;16.880;2023-04-22T02:10:21;100766.44;;;10.48;52.94
24336;BME280;33098;52.400;16.880;2023-04-22T02:12:48;100761.88;;;10.45;53.09
24336;BME280;33098;52.400;16.880;2023-04-22T02:15:17;100761.66;;;10.43;53.09
24336;BME280;33098;52.400;16.880;2023-04-22T02:17:44;100758.71;;;10.40;53.21
24336;BME280;33098;52.400;16.880;2023-04-22T02:20:12;100756.87;;;10.41;53.29
24336;BME280;33098;52.400;16.880;2023-04-22T02:22:41;100760.43;;;10.38;53.41
24336;BME280;33098;52.400;16.880;2023-04-22T02:25:09;100757.14;;;10.40;53.41
24336;BME280;33098;52.400;16.880;2023-04-22T02:27:39;100758.86;;;10.38;53.48
24336;BME280;33098;52.400;16.880;2023-04-22T02:30:07;100758.35;;;10.31;53.45
24336;BME280;33098;52.400;16.880;2023-04-22T02:32:35;100753.23;;;10.29;53.73
24336;BME280;33098;52.400;16.880;2023-04-22T02:35:04;100750.64;;;10.23;53.68
24336;BME280;33098;52.400;16.880;2023-04-22T02:37:31;100745.70;;;10.15;53.69
24336;BME280;33098;52.400;16.880;2023-04-22T02:39:57;100744.69;;;10.10;53.85
24336;BME280;33098;52.400;16.880;2023-04-22T02:42:24;100744.68;;;10.07;54.05
24336;BME280;33098;52.400;16.880;2023-04-22T02:44:51;100742.53;;;10.03;54.03
24336;BME280;33098;52.400;16.880;2023-04-22T02:47:22;100740.55;;;10.01;54.11
24336;BME280;33098;52.400;16.880;2023-04-22T02:49:49;100743.98;;;10.05;54.29
24336;BME280;33098;52.400;16.880;2023-04-22T02:52:18;100743.06;;;10.03;54.33
24336;BME280;33098;52.400;16.880;2023-04-22T02:54:45;100741.69;;;10.05;54.40
24336;BME280;33098;52.400;16.880;2023-04-22T02:57:11;100740.91;;;10.08;54.60
24336;BME280;33098;52.400;16.880;2023-04-22T02:59:41;100738.83;;;10.17;54.66
24336;BME280;33098;52.400;16.880;2023-04-22T03:02:08;100737.80;;;10.17;54.50
24336;BME280;33098;52.400;16.880;2023-04-22T03:05:06;100735.06;;;10.08;54.58
24336;BME280;33098;52.400;16.880;2023-04-22T03:07:34;100734.46;;;10.06;54.53
24336;BME280;33098;52.400;16.880;2023-04-22T03:10:00;100738.14;;;10.05;54.65
24336;BME280;33098;52.400;16.880;2023-04-22T03:12:27;100736.36;;;10.02;54.71
24336;BME280;33098;52.400;16.880;2023-04-22T03:14:57;100739.56;;;9.96;54.80
24336;BME280;33098;52.400;16.880;2023-04-22T03:17:26;100736.56;;;9.92;54.91
24336;BME280;33098;52.400;16.880;2023-04-22T03:19:54;100737.04;;;9.87;54.99
24336;BME280;33098;52.400;16.880;2023-04-22T03:22:21;100729.75;;;9.83;55.09
24336;BME280;33098;52.400;16.880;2023-04-22T03:24:52;100732.80;;;9.85;55.20
24336;BME280;33098;52.400;16.880;2023-04-22T03:27:19;100729.00;;;9.88;55.24
24336;BME280;33098;52.400;16.880;2023-04-22T03:29:45;100724.16;;;9.91;55.35
24336;BME280;33098;52.400;16.880;2023-04-22T03:32:12;100728.55;;;9.90;55.31
24336;BME280;33098;52.400;16.880;2023-04-22T03:34:41;100729.48;;;9.82;55.32
24336;BME280;33098;52.400;16.880;2023-04-22T03:37:08;100725.20;;;9.82;55.49
24336;BME280;33098;52.400;16.880;2023-04-22T03:39:36;100726.00;;;9.78;55.62
24336;BME280;33098;52.400;16.880;2023-04-22T03:42:03;100723.09;;;9.79;55.65
24336;BME280;33098;52.400;16.880;2023-04-22T03:44:34;100725.64;;;9.78;55.75
24336;BME280;33098;52.400;16.880;2023-04-22T03:47:01;100720.65;;;9.74;55.78
24336;BME280;33098;52.400;16.880;2023-04-22T03:49:32;100726.17;;;9.71;55.91
24336;BME280;33098;52.400;16.880;2023-04-22T03:51:59;100724.53;;;9.66;55.84
24336;BME280;33098;52.400;16.880;2023-04-22T03:54:35;100724.22;;;9.58;55.94
24336;BME280;33098;52.400;16.880;2023-04-22T03:57:04;100727.55;;;9.53;56.07
24336;BME280;33098;52.400;16.880;2023-04-22T03:59:32;100729.16;;;9.45;56.12
24336;BME280;33098;52.400;16.880;2023-04-22T04:01:59;100731.42;;;9.44;56.21
24336;BME280;33098;52.400;16.880;2023-04-22T04:04:26;100729.45;;;9.49;56.41
24336;BME280;33098;52.400;16.880;2023-04-22T04:06:58;100726.48;;;9.54;56.44
24336;BME280;33098;52.400;16.880;2023-04-22T04:09:27;100730.89;;;9.51;56.49
24336;BME280;33098;52.400;16.880;2023-04-22T04:12:00;100723.83;;;9.56;56.62
24336;BME280;33098;52.400;16.880;2023-04-22T04:14:29;100725.70;;;9.57;56.56
24336;BME280;33098;52.400;16.880;2023-04-22T04:16:56;100723.53;;;9.53;56.49
24336;BME280;33098;52.400;16.880;2023-04-22T04:19:26;100722.77;;;9.53;56.72
24336;BME280;33098;52.400;16.880;2023-04-22T04:21:52;100722.08;;;9.53;56.73
24336;BME280;33098;52.400;16.880;2023-04-22T04:24:21;100721.05;;;9.55;56.75
24336;BME280;33098;52.400;16.880;2023-04-22T04:26:49;100721.36;;;9.53;56.76
24336;BME280;33098;52.400;16.880;2023-04-22T04:29:24;100720.84;;;9.53;56.82
24336;BME280;33098;52.400;16.880;2023-04-22T04:32:06;100721.66;;;9.54;56.88
24336;BME280;33098;52.400;16.880;2023-04-22T04:34:35;100724.25;;;9.55;56.87
24336;BME280;33098;52.400;16.880;2023-04-22T04:37:11;100726.54;;;9.55;56.96
24336;BME280;33098;52.400;16.880;2023-04-22T04:39:45;100723.72;;;9.60;57.07
24336;BME280;33098;52.400;16.880;2023-04-22T04:42:14;100724.06;;;9.60;57.02
24336;BME280;33098;52.400;16.880;2023-04-22T04:44:48;100722.15;;;9.62;57.14
24336;BME280;33098;52.400;16.880;2023-04-22T04:47:17;100722.80;;;9.65;57.10
24336;BME280;33098;52.400;16.880;2023-04-22T04:49:45;100724.92;;;9.68;57.21
24336;BME280;33098;52.400;16.880;2023-04-22T04:52:13;100723.48;;;9.76;57.35
24336;BME280;33098;52.400;16.880;2023-04-22T04:54:42;100723.67;;;9.83;57.31
24336;BME280;33098;52.400;16.880;2023-04-22T04:57:09;100724.61;;;9.95;57.29
24336;BME280;33098;52.400;16.880;2023-04-22T04:59:38;100726.09;;;10.05;57.27
24336;BME280;33098;52.400;16.880;2023-04-22T05:02:05;100723.51;;;10.08;57.27
24336;BME280;33098;52.400;16.880;2023-04-22T05:04:32;100723.67;;;10.11;57.10
24336;BME280;33098;52.400;16.880;2023-04-22T05:06:59;100720.82;;;10.09;57.12
24336;BME280;33098;52.400;16.880;2023-04-22T05:09:26;100726.03;;;10.13;57.24
24336;BME280;33098;52.400;16.880;2023-04-22T05:11:52;100726.78;;;10.22;57.26
24336;BME280;33098;52.400;16.880;2023-04-22T05:14:20;100725.64;;;10.36;57.26
24336;BME280;33098;52.400;16.880;2023-04-22T05:16:47;100727.54;;;10.42;57.16
24336;BME280;33098;52.400;16.880;2023-04-22T05:19:14;100724.14;;;10.51;57.24
24336;BME280;33098;52.400;16.880;2023-04-22T05:21:41;100721.04;;;10.65;57.06
24336;BME280;33098;52.400;16.880;2023-04-22T05:24:08;100721.10;;;10.69;56.88
24336;BME280;33098;52.400;16.880;2023-04-22T05:26:34;100723.75;;;10.71;56.74
24336;BME280;33098;52.400;16.880;2023-04-22T05:29:02;100724.45;;;10.81;56.83
24336;BME280;33098;52.400;16.880;2023-04-22T05:31:29;100727.52;;;10.87;56.90
24336;BME280;33098;52.400;16.880;2023-04-22T05:33:56;100726.67;;;10.93;56.78
24336;BME280;33098;52.400;16.880;2023-04-22T05:36:28;100730.70;;;11.00;56.72
24336;BME280;33098;52.400;16.880;2023-04-22T05:38:55;100729.63;;;11.04;56.58
24336;BME280;33098;52.400;16.880;2023-04-22T05:41:21;100726.98;;;11.11;56.43
24336;BME280;33098;52.400;16.880;2023-04-22T05:43:48;100725.73;;;11.18;56.39
24336;BME280;33098;52.400;16.880;2023-04-22T05:46:17;100726.40;;;11.30;56.42
24336;BME280;33098;52.400;16.880;2023-04-22T05:48:44;100725.53;;;11.39;56.22
24336;BME280;33098;52.400;16.880;2023-04-22T05:51:31;100726.73;;;11.42;56.09
24336;BME280;33098;52.400;16.880;2023-04-22T05:53:58;100726.81;;;11.50;56.15
24336;BME280;33098;52.400;16.880;2023-04-22T05:56:25;100730.34;;;11.57;56.03
24336;BME280;33098;52.400;16.880;2023-04-22T05:58:53;100734.59;;;11.65;55.98
24336;BME280;33098;52.400;16.880;2023-04-22T06:01:25;100733.91;;;11.69;55.80
24336;BME280;33098;52.400;16.880;2023-04-22T06:03:55;100735.12;;;11.87;55.81
24336;BME280;33098;52.400;16.880;2023-04-22T06:06:23;100736.77;;;12.07;55.62
24336;BME280;33098;52.400;16.880;2023-04-22T06:08:49;100737.54;;;12.15;55.56
24336;BME280;33098;52.400;16.880;2023-04-22T06:11:24;100735.99;;;12.21;55.48
24336;BME280;33098;52.400;16.880;2023-04-22T06:13:51;100736.79;;;12.22;55.52
24336;BME280;33098;52.400;16.880;2023-04-22T06:16:21;100735.83;;;12.32;55.38
24336;BME280;33098;52.400;16.880;2023-04-22T06:18:47;100735.38;;;12.60;55.29
24336;BME280;33098;52.400;16.880;2023-04-22T06:21:27;100732.98;;;12.65;55.01
24336;BME280;33098;52.400;16.880;2023-04-22T06:23:56;100736.01;;;12.63;54.93
24336;BME280;33098;52.400;16.880;2023-04-22T06:26:22;100734.75;;;12.65;55.09
24336;BME280;33098;52.400;16.880;2023-04-22T06:28:50;100733.20;;;12.69;55.00
24336;BME280;33098;52.400;16.880;2023-04-22T06:31:19;100733.66;;;12.65;54.76
24336;BME280;33098;52.400;16.880;2023-04-22T06:33:48;100730.30;;;12.67;54.87
24336;BME280;33098;52.400;16.880;2023-04-22T06:36:20;100730.48;;;12.78;55.05
24336;BME280;33098;52.400;16.880;2023-04-22T06:38:55;100726.80;;;12.87;55.02
24336;BME280;33098;52.400;16.880;2023-04-22T06:41:35;100729.02;;;12.93;54.91
24336;BME280;33098;52.400;16.880;2023-04-22T06:44:11;100729.48;;;12.99;54.92
24336;BME280;33098;52.400;16.880;2023-04-22T06:46:56;100726.54;;;12.99;54.82
24336;BME280;33098;52.400;16.880;2023-04-22T06:49:36;100722.98;;;13.02;54.70
24336;BME280;33098;52.400;16.880;2023-04-22T06:52:20;100725.63;;;13.10;54.82
24336;BME280;33098;52.400;16.880;2023-04-22T06:54:50;100728.73;;;13.16;54.73
24336;BME280;33098;52.400;16.880;2023-04-22T06:57:16;100721.52;;;13.21;54.75
24336;BME280;33098;52.400;16.880;2023-04-22T06:59:44;100718.76;;;13.28;54.54
24336;BME280;33098;52.400;16.880;2023-04-22T07:02:17;100717.60;;;13.36;54.45
24336;BME280;33098;52.400;16.880;2023-04-22T07:04:44;100725.17;;;13.43;54.46
24336;BME280;33098;52.400;16.880;2023-04-22T07:07:13;100721.55;;;13.48;54.38
24336;BME280;33098;52.400;16.880;2023-04-22T07:09:46;100717.95;;;13.52;54.35
24336;BME280;33098;52.400;16.880;2023-04-22T07:12:13;100718.04;;;13.56;54.24
24336;BME280;33098;52.400;16.880;2023-04-22T07:14:43;100719.58;;;13.63;54.29
24336;BME280;33098;52.400;16.880;2023-04-22T07:17:11;100714.75;;;13.71;54.28
24336;BME280;33098;52.400;16.880;2023-04-22T07:19:38;100712.41;;;13.79;54.28
24336;BME280;33098;52.400;16.880;2023-04-22T07:22:05;100709.08;;;13.85;54.21
24336;BME280;33098;52.400;16.880;2023-04-22T07:24:33;100710.51;;;13.89;54.17
24336;BME280;33098;52.400;16.880;2023-04-22T07:27:00;100710.89;;;13.95;54.22
24336;BME280;33098;52.400;16.880;2023-04-22T07:29:31;100710.27;;;14.00;54.15
24336;BME280;33098;52.400;16.880;2023-04-22T07:31:58;100710.55;;;14.05;54.17
24336;BME280;33098;52.400;16.880;2023-04-22T07:34:25;100710.25;;;14.10;54.14
24336;BME280;33098;52.400;16.880;2023-04-22T07:36:52;100712.20;;;14.16;54.12
24336;BME280;33098;52.400;16.880;2023-04-22T07:39:21;100711.63;;;14.23;54.14
24336;BME280;33098;52.400;16.880;2023-04-22T07:41:49;100706.70;;;14.28;54.05
24336;BME280;33098;52.400;16.880;2023-04-22T07:44:16;100709.29;;;14.37;53.90
24336;BME280;33098;52.400;16.880;2023-04-22T07:46:47;100708.42;;;14.47;53.86
24336;BME280;33098;52.400;16.880;2023-04-22T07:49:14;100702.23;;;14.53;53.77
24336;BME280;33098;52.400;16.880;2023-04-22T07:51:45;100702.83;;;14.61;53.68
24336;BME280;33098;52.400;16.880;2023-04-22T07:54:11;100706.90;;;14.67;53.62
24336;BME280;33098;52.400;16.880;2023-04-22T07:56:38;100702.11;;;14.75;53.31
24336;BME280;33098;52.400;16.880;2023-04-22T07:59:04;100701.50;;;14.83;53.24
24336;BME280;33098;52.400;16.880;2023-04-22T08:01:34;100702.10;;;14.91;53.04
24336;BME280;33098;52.400;16.880;2023-04-22T08:04:01;100700.81;;;14.99;52.96
24336;BME280;33098;52.400;16.880;2023-04-22T08:06:31;100701.00;;;15.06;52.96
24336;BME280;33098;52.400;16.880;2023-04-22T08:08:58;100699.48;;;15.15;52.93
24336;BME280;33098;52.400;16.880;2023-04-22T08:11:32;100695.61;;;15.22;52.89
24336;BME280;33098;52.400;16.880;2023-04-22T08:14:01;100696.64;;;15.26;52.74
24336;BME280;33098;52.400;16.880;2023-04-22T08:16:29;100698.44;;;15.30;52.66
24336;BME280;33098;52.400;16.880;2023-04-22T08:18:58;100696.80;;;15.38;52.50
24336;BME280;33098;52.400;16.880;2023-04-22T08:21:27;100696.58;;;15.46;52.33
24336;BME280;33098;52.400;16.880;2023-04-22T08:23:56;100698.52;;;15.58;52.18
24336;BME280;33098;52.400;16.880;2023-04-22T08:26:22;100694.17;;;15.67;51.94
24336;BME280;33098;52.400;16.880;2023-04-22T08:28:49;100695.42;;;15.75;51.63
24336;BME280;33098;52.400;16.880;2023-04-22T08:31:16;100692.98;;;15.86;51.48
24336;BME280;33098;52.400;16.880;2023-04-22T08:33:45;100690.86;;;15.93;50.97
24336;BME280;33098;52.400;16.880;2023-04-22T08:36:11;100692.73;;;16.03;50.76
24336;BME280;33098;52.400;16.880;2023-04-22T08:38:38;100689.45;;;16.14;50.27
24336;BME280;33098;52.400;16.880;2023-04-22T08:41:07;100687.09;;;16.24;49.99
24336;BME280;33098;52.400;16.880;2023-04-22T08:43:34;100683.48;;;16.32;49.84
24336;BME280;33098;52.400;16.880;2023-04-22T08:46:01;100681.32;;;16.37;49.62
24336;BME280;33098;52.400;16.880;2023-04-22T08:48:31;100683.22;;;16.41;49.36
24336;BME280;33098;52.400;16.880;2023-04-22T08:50:58;100674.40;;;16.47;49.39
24336;BME280;33098;52.400;16.880;2023-04-22T08:53:28;100677.06;;;16.49;49.22
24336;BME280;33098;52.400;16.880;2023-04-22T08:55:55;100676.02;;;16.53;49.07
24336;BME280;33098;52.400;16.880;2023-04-22T08:58:23;100676.64;;;16.57;48.46
24336;BME280;33098;52.400;16.880;2023-04-22T09:00:54;100681.11;;;16.68;48.18
24336;BME280;33098;52.400;16.880;2023-04-22T09:03:21;100683.27;;;16.80;47.75
24336;BME280;33098;52.400;16.880;2023-04-22T09:05:51;100679.44;;;16.87;47.57
24336;BME280;33098;52.400;16.880;2023-04-22T09:08:21;100678.21;;;16.92;46.96
24336;BME280;33098;52.400;16.880;2023-04-22T09:10:48;100677.55;;;17.05;46.77
24336;BME280;33098;52.400;16.880;2023-04-22T09:13:16;100677.27;;;17.19;46.69
24336;BME280;33098;52.400;16.880;2023-04-22T09:15:43;100678.02;;;17.26;46.69
24336;BME280;33098;52.400;16.880;2023-04-22T09:18:10;100680.35;;;17.32;46.44
24336;BME280;33098;52.400;16.880;2023-04-22T09:20:40;100673.77;;;17.40;46.45
24336;BME280;33098;52.400;16.880;2023-04-22T09:23:11;100674.04;;;17.43;46.29
24336;BME280;33098;52.400;16.880;2023-04-22T09:25:38;100674.79;;;17.44;46.05
24336;BME280;33098;52.400;16.880;2023-04-22T09:28:10;100673.38;;;17.50;46.08
24336;BME280;33098;52.400;16.880;2023-04-22T09:30:40;100668.38;;;17.61;45.87
24336;BME280;33098;52.400;16.880;2023-04-22T09:33:07;100670.29;;;17.72;45.13
24336;BME280;33098;52.400;16.880;2023-04-22T09:35:40;100660.56;;;17.77;45.33
24336;BME280;33098;52.400;16.880;2023-04-22T09:38:11;100658.56;;;17.80;45.28
24336;BME280;33098;52.400;16.880;2023-04-22T09:40:41;100660.23;;;17.86;45.06
24336;BME280;33098;52.400;16.880;2023-04-22T09:43:09;100654.88;;;18.01;44.92
24336;BME280;33098;52.400;16.880;2023-04-22T09:45:41;100652.91;;;18.20;44.49
24336;BME280;33098;52.400;16.880;2023-04-22T09:48:09;100652.99;;;18.32;44.30
24336;BME280;33098;52.400;16.880;2023-04-22T09:50:38;100649.96;;;18.44;43.88
24336;BME280;33098;52.400;16.880;2023-04-22T09:53:07;100648.66;;;18.58;43.47
24336;BME280;33098;52.400;16.880;2023-04-22T09:55:37;100642.73;;;18.66;42.54
24336;BME280;33098;52.400;16.880;2023-04-22T09:58:10;100643.16;;;18.68;42.64
24336;BME280;33098;52.400;16.880;2023-04-22T10:00:43;100638.61;;;18.77;42.62
24336;BME280;33098;52.400;16.880;2023-04-22T10:03:10;100631.89;;;18.92;42.64
24336;BME280;33098;52.400;16.880;2023-04-22T10:05:37;100637.30;;;19.10;42.36
24336;BME280;33098;52.400;16.880;2023-04-22T10:08:09;100635.51;;;19.28;42.34
24336;BME280;33098;52.400;16.880;2023-04-22T10:10:37;100632.86;;;19.42;42.23
24336;BME280;33098;52.400;16.880;2023-04-22T10:13:07;100633.54;;;19.49;42.05
24336;BME280;33098;52.400;16.880;2023-04-22T10:15:42;100634.11;;;19.58;41.47
24336;BME280;33098;52.400;16.880;2023-04-22T10:18:16;100633.41;;;19.70;41.32
24336;BME280;33098;52.400;16.880;2023-04-22T10:20:45;100635.75;;;19.77;40.30
24336;BME280;33098;52.400;16.880;2023-04-22T10:23:23;100629.35;;;19.84;40.87
24336;BME280;33098;52.400;16.880;2023-04-22T10:25:54;100621.77;;;19.89;40.65
24336;BME280;33098;52.400;16.880;2023-04-22T10:28:24;100618.77;;;19.93;40.50
24336;BME280;33098;52.400;16.880;2023-04-22T10:30:56;100618.80;;;20.05;39.24
24336;BME280;33098;52.400;16.880;2023-04-22T10:33:35;100620.63;;;20.15;39.38
24336;BME280;33098;52.400;16.880;2023-04-22T10:36:20;100620.62;;;20.28;39.47
24336;BME280;33098;52.400;16.880;2023-04-22T10:41:28;100622.68;;;20.58;39.62
24336;BME280;33098;52.400;16.880;2023-04-22T10:43:57;100613.55;;;20.67;39.30
24336;BME280;33098;52.400;16.880;2023-04-22T10:49:06;100607.45;;;20.85;38.88
24336;BME280;33098;52.400;16.880;2023-04-22T10:51:49;100608.15;;;20.93;38.55
24336;BME280;33098;52.400;16.880;2023-04-22T10:59:32;100596.77;;;21.19;38.03
24336;BME280;33098;52.400;16.880;2023-04-22T11:02:04;100593.54;;;21.35;38.04
24336;BME280;33098;52.400;16.880;2023-04-22T11:04:33;100589.34;;;21.49;37.21
24336;BME280;33098;52.400;16.880;2023-04-22T11:09:50;100581.19;;;21.65;36.05
24336;BME280;33098;52.400;16.880;2023-04-22T11:17:36;100578.77;;;21.81;35.68
24336;BME280;33098;52.400;16.880;2023-04-22T11:20:07;100573.58;;;21.82;35.15
24336;BME280;33098;52.400;16.880;2023-04-22T11:22:44;100568.73;;;21.90;35.51
24336;BME280;33098;52.400;16.880;2023-04-22T11:25:18;100570.34;;;22.05;35.35
24336;BME280;33098;52.400;16.880;2023-04-22T11:27:45;100562.76;;;22.14;34.91
24336;BME280;33098;52.400;16.880;2023-04-22T11:30:16;100563.25;;;22.22;35.22
24336;BME280;33098;52.400;16.880;2023-04-22T11:32:44;100556.70;;;22.39;35.51
24336;BME280;33098;52.400;16.880;2023-04-22T11:35:20;100551.66;;;22.63;35.25
24336;BME280;33098;52.400;16.880;2023-04-22T11:40:17;100549.77;;;23.00;34.72
24336;BME280;33098;52.400;16.880;2023-04-22T11:42:46;100548.06;;;23.13;34.21
24336;BME280;33098;52.400;16.880;2023-04-22T11:45:16;100545.16;;;23.26;34.16
24336;BME280;33098;52.400;16.880;2023-04-22T11:47:43;100542.70;;;23.29;33.12
24336;BME280;33098;52.400;16.880;2023-04-22T11:50:16;100538.30;;;23.31;33.05
24336;BME280;33098;52.400;16.880;2023-04-22T11:53:00;100536.44;;;23.26;32.35
24336;BME280;33098;52.400;16.880;2023-04-22T11:55:31;100529.09;;;23.29;33.55
24336;BME280;33098;52.400;16.880;2023-04-22T11:58:25;100526.95;;;23.47;34.26
24336;BME280;33098;52.400;16.880;2023-04-22T12:00:53;100525.51;;;23.75;34.41
24336;BME280;33098;52.400;16.880;2023-04-22T12:03:27;100519.85;;;24.04;34.60
24336;BME280;33098;52.400;16.880;2023-04-22T12:06:00;100524.30;;;24.25;34.10
24336;BME280;33098;52.400;16.880;2023-04-22T12:08:34;100522.19;;;24.37;33.05
24336;BME280;33098;52.400;16.880;2023-04-22T12:11:05;100526.30;;;24.34;31.91
24336;BME280;33098;52.400;16.880;2023-04-22T12:16:20;100526.66;;;24.50;32.31
24336;BME280;33098;52.400;16.880;2023-04-22T12:18:54;100519.00;;;24.65;32.55
24336;BME280;33098;52.400;16.880;2023-04-22T12:21:25;100523.48;;;24.86;32.73
24336;BME280;33098;52.400;16.880;2023-04-22T12:23:56;100520.42;;;24.99;32.19
24336;BME280;33098;52.400;16.880;2023-04-22T12:26:25;100512.55;;;25.00;32.09
24336;BME280;33098;52.400;16.880;2023-04-22T12:28:58;100505.49;;;25.06;32.17
24336;BME280;33098;52.400;16.880;2023-04-22T12:31:30;100502.56;;;25.24;32.31
24336;BME280;33098;52.400;16.880;2023-04-22T12:33:57;100499.73;;;25.41;32.37
24336;BME280;33098;52.400;16.880;2023-04-22T12:36:25;100496.33;;;25.65;32.45
24336;BME280;33098;52.400;16.880;2023-04-22T12:38:55;100493.80;;;26.00;32.42
24336;BME280;33098;52.400;16.880;2023-04-22T12:41:22;100495.34;;;26.35;32.38
24336;BME280;33098;52.400;16.880;2023-04-22T12:43:57;100488.67;;;26.65;31.36
24336;BME280;33098;52.400;16.880;2023-04-22T12:46:31;100481.61;;;26.59;31.22
24336;BME280;33098;52.400;16.880;2023-04-22T12:49:02;100485.00;;;26.72;30.43
24336;BME280;33098;52.400;16.880;2023-04-22T12:51:29;100484.76;;;26.67;29.04
24336;BME280;33098;52.400;16.880;2023-04-22T12:53:56;100481.88;;;26.52;29.66
24336;BME280;33098;52.400;16.880;2023-04-22T12:56:29;100476.71;;;26.70;30.19
24336;BME280;33098;52.400;16.880;2023-04-22T12:58:56;100473.92;;;27.03;30.77
24336;BME280;33098;52.400;16.880;2023-04-22T13:01:29;100470.54;;;27.45;30.64
24336;BME280;33098;52.400;16.880;2023-04-22T13:03:56;100473.55;;;27.80;30.34
24336;BME280;33098;52.400;16.880;2023-04-22T13:06:25;100464.60;;;28.09;30.04
24336;BME280;33098;52.400;16.880;2023-04-22T13:09:08;100467.46;;;28.29;30.13
24336;BME280;33098;52.400;16.880;2023-04-22T13:11:37;100461.98;;;28.58;29.31
24336;BME280;33098;52.400;16.880;2023-04-22T13:14:04;100464.15;;;28.76;29.24
24336;BME280;33098;52.400;16.880;2023-04-22T13:16:38;100457.73;;;28.83;29.01